sensor_id;sensor_type;location;lat;lon;timestamp;P1;durP1;ratioP1;P2;durP2;ratioP2
29402;SDS011;16382;59.942;30.472;2023-03-13T00:01:21;1.42;;;0.40;;
29402;SDS011;16382;59.942;30.472;2023-03-13T00:03:50;0.30;;;0.30;;
29402;SDS011;16382;59.942;30.472;2023-03-13T00:06:20;0.47;;;0.32;;
29402;SDS011;16382;59.942;30.472;2023-03-13T00:08:49;1.17;;;0.70;;
29402;SDS011;16382;59.942;30.472;2023-03-13T00:11:17;0.65;;;0.40;;
29402;SDS011;16382;59.942;30.472;2023-03-13T00:13:44;0.30;;;0.30;;
29402;SDS011;16382;59.942;30.472;2023-03-13T00:16:12;0.40;;;0.30;;
29402;SDS011;16382;59.942;30.472;2023-03-13T00:18:43;0.75;;;0.50;;
29402;SDS011;16382;59.942;30.472;2023-03-13T00:21:12;0.60;;;0.30;;
29402;SDS011;16382;59.942;30.472;2023-03-13T00:23:40;1.67;;;0.40;;
29402;SDS011;16382;59.942;30.472;2023-03-13T00:26:08;0.73;;;0.30;;
29402;SDS011;16382;59.942;30.472;2023-03-13T00:28:38;2.83;;;0.60;;
29402;SDS011;16382;59.942;30.472;2023-03-13T00:31:07;2.42;;;0.70;;
29402;SDS011;16382;59.942;30.472;2023-03-13T00:33:37;1.95;;;0.40;;
29402;SDS011;16382;59.942;30.472;2023-03-13T00:36:07;1.30;;;0.50;;
29402;SDS011;16382;59.942;30.472;2023-03-13T00:38:37;0.50;;;0.40;;
29402;SDS011;16382;59.942;30.472;2023-03-13T00:41:07;0.93;;;0.73;;
29402;SDS011;16382;59.942;30.472;2023-03-13T00:43:37;0.40;;;0.40;;
29402;SDS011;16382;59.942;30.472;2023-03-13T00:46:06;0.77;;;0.55;;
29402;SDS011;16382;59.942;30.472;2023-03-13T00:48:34;0.73;;;0.60;;
29402;SDS011;16382;59.942;30.472;2023-03-13T00:51:02;0.98;;;0.50;;
29402;SDS011;16382;59.942;30.472;2023-03-13T00:53:31;0.32;;;0.30;;
29402;SDS011;16382;59.942;30.472;2023-03-13T00:55:59;1.25;;;0.55;;
29402;SDS011;16382;59.942;30.472;2023-03-13T00:58:30;1.65;;;0.40;;
29402;SDS011;16382;59.942;30.472;2023-03-13T01:01:07;0.93;;;0.50;;
29402;SDS011;16382;59.942;30.472;2023-03-13T01:03:37;1.02;;;0.43;;
29402;SDS011;16382;59.942;30.472;2023-03-13T01:06:08;0.68;;;0.35;;
29402;SDS011;16382;59.942;30.472;2023-03-13T01:08:41;0.40;;;0.40;;
29402;SDS011;16382;59.942;30.472;2023-03-13T01:11:09;2.20;;;0.60;;
29402;SDS011;16382;59.942;30.472;2023-03-13T01:13:40;2.50;;;0.80;;
29402;SDS011;16382;59.942;30.472;2023-03-13T01:16:09;1.02;;;0.50;;
29402;SDS011;16382;59.942;30.472;2023-03-13T01:18:40;1.58;;;0.60;;
29402;SDS011;16382;59.942;30.472;2023-03-13T01:21:10;1.17;;;0.57;;
29402;SDS011;16382;59.942;30.472;2023-03-13T01:23:38;0.80;;;0.40;;
29402;SDS011;16382;59.942;30.472;2023-03-13T01:26:06;0.77;;;0.57;;
29402;SDS011;16382;59.942;30.472;2023-03-13T01:28:34;1.05;;;0.57;;
29402;SDS011;16382;59.942;30.472;2023-03-13T01:31:10;2.17;;;0.60;;
29402;SDS011;16382;59.942;30.472;2023-03-13T01:33:39;0.65;;;0.60;;
29402;SDS011;16382;59.942;30.472;2023-03-13T01:36:07;0.35;;;0.35;;
29402;SDS011;16382;59.942;30.472;2023-03-13T01:38:35;1.42;;;0.50;;
29402;SDS011;16382;59.942;30.472;2023-03-13T01:41:04;1.15;;;0.77;;
29402;SDS011;16382;59.942;30.472;2023-03-13T01:43:33;1.98;;;0.70;;
29402;SDS011;16382;59.942;30.472;2023-03-13T01:46:04;0.73;;;0.38;;
29402;SDS011;16382;59.942;30.472;2023-03-13T01:48:59;1.30;;;0.50;;
29402;SDS011;16382;59.942;30.472;2023-03-13T01:51:38;0.30;;;0.30;;
29402;SDS011;16382;59.942;30.472;2023-03-13T01:54:10;3.25;;;1.48;;
29402;SDS011;16382;59.942;30.472;2023-03-13T01:56:46;0.68;;;0.52;;
29402;SDS011;16382;59.942;30.472;2023-03-13T01:59:17;0.75;;;0.40;;
29402;SDS011;16382;59.942;30.472;2023-03-13T02:01:51;0.25;;;0.25;;
29402;SDS011;16382;59.942;30.472;2023-03-13T02:04:22;1.63;;;0.60;;
29402;SDS011;16382;59.942;30.472;2023-03-13T02:06:53;0.50;;;0.50;;
29402;SDS011;16382;59.942;30.472;2023-03-13T02:09:25;1.33;;;0.57;;
29402;SDS011;16382;59.942;30.472;2023-03-13T02:12:00;0.50;;;0.45;;
29402;SDS011;16382;59.942;30.472;2023-03-13T02:14:31;0.50;;;0.50;;
29402;SDS011;16382;59.942;30.472;2023-03-13T02:17:04;1.38;;;0.50;;
29402;SDS011;16382;59.942;30.472;2023-03-13T02:19:34;1.13;;;0.50;;
29402;SDS011;16382;59.942;30.472;2023-03-13T02:22:08;1.98;;;0.60;;
29402;SDS011;16382;59.942;30.472;2023-03-13T02:24:45;0.73;;;0.38;;
29402;SDS011;16382;59.942;30.472;2023-03-13T02:27:19;1.17;;;0.57;;
29402;SDS011;16382;59.942;30.472;2023-03-13T02:29:47;2.33;;;0.60;;
29402;SDS011;16382;59.942;30.472;2023-03-13T02:32:15;1.35;;;0.35;;
29402;SDS011;16382;59.942;30.472;2023-03-13T02:34:43;0.77;;;0.50;;
29402;SDS011;16382;59.942;30.472;2023-03-13T02:37:14;1.88;;;0.60;;
29402;SDS011;16382;59.942;30.472;2023-03-13T02:39:45;1.20;;;0.70;;
29402;SDS011;16382;59.942;30.472;2023-03-13T02:42:16;1.33;;;0.60;;
29402;SDS011;16382;59.942;30.472;2023-03-13T02:44:47;0.50;;;0.50;;
29402;SDS011;16382;59.942;30.472;2023-03-13T02:47:17;1.35;;;0.80;;
29402;SDS011;16382;59.942;30.472;2023-03-13T02:49:45;0.50;;;0.50;;
29402;SDS011;16382;59.942;30.472;2023-03-13T02:52:13;1.27;;;0.50;;
29402;SDS011;16382;59.942;30.472;2023-03-13T02:57:16;1.52;;;0.50;;
29402;SDS011;16382;59.942;30.472;2023-03-13T02:59:45;1.20;;;0.63;;
29402;SDS011;16382;59.942;30.472;2023-03-13T03:02:13;1.60;;;0.63;;
29402;SDS011;16382;59.942;30.472;2023-03-13T03:04:40;0.85;;;0.55;;
29402;SDS011;16382;59.942;30.472;2023-03-13T03:07:10;0.70;;;0.55;;
29402;SDS011;16382;59.942;30.472;2023-03-13T03:09:37;2.00;;;0.68;;
29402;SDS011;16382;59.942;30.472;2023-03-13T03:12:09;0.60;;;0.50;;
29402;SDS011;16382;59.942;30.472;2023-03-13T03:14:37;2.00;;;0.70;;
29402;SDS011;16382;59.942;30.472;2023-03-13T03:17:06;1.15;;;0.60;;
29402;SDS011;16382;59.942;30.472;2023-03-13T03:19:34;1.02;;;0.50;;
29402;SDS011;16382;59.942;30.472;2023-03-13T03:22:01;0.95;;;0.60;;
29402;SDS011;16382;59.942;30.472;2023-03-13T03:24:30;0.98;;;0.93;;
29402;SDS011;16382;59.942;30.472;2023-03-13T03:26:58;0.70;;;0.70;;
29402;SDS011;16382;59.942;30.472;2023-03-13T03:29:31;2.72;;;0.60;;
29402;SDS011;16382;59.942;30.472;2023-03-13T03:31:58;0.63;;;0.55;;
29402;SDS011;16382;59.942;30.472;2023-03-13T03:34:28;1.23;;;0.65;;
29402;SDS011;16382;59.942;30.472;2023-03-13T03:36:56;1.13;;;0.70;;
29402;SDS011;16382;59.942;30.472;2023-03-13T03:39:27;1.30;;;0.40;;
29402;SDS011;16382;59.942;30.472;2023-03-13T03:41:54;0.60;;;0.55;;
29402;SDS011;16382;59.942;30.472;2023-03-13T03:44:23;1.52;;;0.52;;
29402;SDS011;16382;59.942;30.472;2023-03-13T03:46:53;0.60;;;0.43;;
29402;SDS011;16382;59.942;30.472;2023-03-13T03:49:22;0.50;;;0.50;;
29402;SDS011;16382;59.942;30.472;2023-03-13T03:51:52;0.20;;;0.20;;
29402;SDS011;16382;59.942;30.472;2023-03-13T03:54:26;1.17;;;0.25;;
29402;SDS011;16382;59.942;30.472;2023-03-13T03:56:54;0.40;;;0.40;;
29402;SDS011;16382;59.942;30.472;2023-03-13T03:59:21;1.85;;;0.30;;
29402;SDS011;16382;59.942;30.472;2023-03-13T04:01:55;0.28;;;0.28;;
29402;SDS011;16382;59.942;30.472;2023-03-13T04:04:25;1.00;;;0.50;;
29402;SDS011;16382;59.942;30.472;2023-03-13T04:07:01;0.90;;;0.50;;
29402;SDS011;16382;59.942;30.472;2023-03-13T04:09:30;3.10;;;0.30;;
29402;SDS011;16382;59.942;30.472;2023-03-13T04:11:59;0.90;;;0.60;;
29402;SDS011;16382;59.942;30.472;2023-03-13T04:14:30;2.88;;;0.68;;
29402;SDS011;16382;59.942;30.472;2023-03-13T04:16:59;0.77;;;0.30;;
29402;SDS011;16382;59.942;30.472;2023-03-13T04:19:27;0.45;;;0.45;;
29402;SDS011;16382;59.942;30.472;2023-03-13T04:21:55;0.50;;;0.50;;
29402;SDS011;16382;59.942;30.472;2023-03-13T04:24:25;1.42;;;0.50;;
29402;SDS011;16382;59.942;30.472;2023-03-13T04:26:55;1.33;;;0.60;;
29402;SDS011;16382;59.942;30.472;2023-03-13T04:29:23;0.82;;;0.60;;
29402;SDS011;16382;59.942;30.472;2023-03-13T04:32:02;0.77;;;0.40;;
29402;SDS011;16382;59.942;30.472;2023-03-13T04:34:38;1.33;;;0.73;;
29402;SDS011;16382;59.942;30.472;2023-03-13T04:37:11;0.75;;;0.52;;
29402;SDS011;16382;59.942;30.472;2023-03-13T04:40:04;0.57;;;0.43;;
29402;SDS011;16382;59.942;30.472;2023-03-13T04:42:49;0.95;;;0.52;;
29402;SDS011;16382;59.942;30.472;2023-03-13T04:45:37;1.85;;;0.57;;
29402;SDS011;16382;59.942;30.472;2023-03-13T04:48:20;2.25;;;0.60;;
29402;SDS011;16382;59.942;30.472;2023-03-13T04:51:11;1.08;;;0.43;;
29402;SDS011;16382;59.942;30.472;2023-03-13T04:53:57;3.30;;;0.60;;
29402;SDS011;16382;59.942;30.472;2023-03-13T04:56:45;1.08;;;0.40;;
29402;SDS011;16382;59.942;30.472;2023-03-13T04:59:39;1.05;;;0.40;;
29402;SDS011;16382;59.942;30.472;2023-03-13T05:02:29;5.32;;;0.75;;
29402;SDS011;16382;59.942;30.472;2023-03-13T05:04:59;1.42;;;0.73;;
29402;SDS011;16382;59.942;30.472;2023-03-13T05:07:45;1.33;;;0.50;;
29402;SDS011;16382;59.942;30.472;2023-03-13T05:10:31;1.08;;;0.70;;
29402;SDS011;16382;59.942;30.472;2023-03-13T05:13:18;1.23;;;0.57;;
29402;SDS011;16382;59.942;30.472;2023-03-13T05:16:05;1.13;;;0.60;;
29402;SDS011;16382;59.942;30.472;2023-03-13T05:19:02;0.70;;;0.43;;
29402;SDS011;16382;59.942;30.472;2023-03-13T05:21:59;2.97;;;0.45;;
29402;SDS011;16382;59.942;30.472;2023-03-13T05:24:45;3.40;;;0.70;;
29402;SDS011;16382;59.942;30.472;2023-03-13T05:27:36;1.65;;;0.88;;
29402;SDS011;16382;59.942;30.472;2023-03-13T05:30:32;2.75;;;0.77;;
29402;SDS011;16382;59.942;30.472;2023-03-13T05:33:11;4.75;;;0.88;;
29402;SDS011;16382;59.942;30.472;2023-03-13T05:35:47;0.80;;;0.70;;
29402;SDS011;16382;59.942;30.472;2023-03-13T05:38:50;2.58;;;0.80;;
29402;SDS011;16382;59.942;30.472;2023-03-13T05:41:29;0.95;;;0.55;;
29402;SDS011;16382;59.942;30.472;2023-03-13T05:44:20;0.60;;;0.45;;
29402;SDS011;16382;59.942;30.472;2023-03-13T05:47:08;2.85;;;0.73;;
29402;SDS011;16382;59.942;30.472;2023-03-13T05:49:57;1.42;;;0.50;;
29402;SDS011;16382;59.942;30.472;2023-03-13T05:52:28;1.83;;;0.65;;
29402;SDS011;16382;59.942;30.472;2023-03-13T05:55:24;0.77;;;0.60;;
29402;SDS011;16382;59.942;30.472;2023-03-13T05:58:10;1.10;;;0.43;;
29402;SDS011;16382;59.942;30.472;2023-03-13T06:00:43;1.45;;;0.30;;
29402;SDS011;16382;59.942;30.472;2023-03-13T06:03:26;0.88;;;0.77;;
29402;SDS011;16382;59.942;30.472;2023-03-13T06:05:56;4.95;;;0.50;;
29402;SDS011;16382;59.942;30.472;2023-03-13T06:08:42;3.25;;;0.70;;
29402;SDS011;16382;59.942;30.472;2023-03-13T06:11:13;1.55;;;0.88;;
29402;SDS011;16382;59.942;30.472;2023-03-13T06:13:40;3.25;;;0.70;;
29402;SDS011;16382;59.942;30.472;2023-03-13T06:16:18;3.15;;;1.00;;
29402;SDS011;16382;59.942;30.472;2023-03-13T06:18:48;1.45;;;0.60;;
29402;SDS011;16382;59.942;30.472;2023-03-13T06:21:16;2.72;;;0.60;;
29402;SDS011;16382;59.942;30.472;2023-03-13T06:23:43;1.55;;;1.02;;
29402;SDS011;16382;59.942;30.472;2023-03-13T06:26:11;1.98;;;0.80;;
29402;SDS011;16382;59.942;30.472;2023-03-13T06:28:39;1.10;;;0.57;;
29402;SDS011;16382;59.942;30.472;2023-03-13T06:31:07;6.95;;;1.08;;
29402;SDS011;16382;59.942;30.472;2023-03-13T06:33:36;1.25;;;0.80;;
29402;SDS011;16382;59.942;30.472;2023-03-13T06:36:06;2.85;;;1.23;;
29402;SDS011;16382;59.942;30.472;2023-03-13T06:38:34;1.70;;;0.70;;
29402;SDS011;16382;59.942;30.472;2023-03-13T06:41:02;0.93;;;0.68;;
29402;SDS011;16382;59.942;30.472;2023-03-13T06:43:30;2.05;;;0.75;;
29402;SDS011;16382;59.942;30.472;2023-03-13T06:46:01;1.35;;;0.75;;
29402;SDS011;16382;59.942;30.472;2023-03-13T06:48:30;1.65;;;0.98;;
29402;SDS011;16382;59.942;30.472;2023-03-13T06:50:58;0.98;;;0.80;;
29402;SDS011;16382;59.942;30.472;2023-03-13T06:53:27;2.28;;;1.20;;
29402;SDS011;16382;59.942;30.472;2023-03-13T06:55:54;1.10;;;1.00;;
29402;SDS011;16382;59.942;30.472;2023-03-13T06:58:26;2.13;;;1.20;;
29402;SDS011;16382;59.942;30.472;2023-03-13T07:00:54;1.10;;;0.90;;
29402;SDS011;16382;59.942;30.472;2023-03-13T07:03:21;2.75;;;1.10;;
29402;SDS011;16382;59.942;30.472;2023-03-13T07:05:53;2.75;;;1.13;;
29402;SDS011;16382;59.942;30.472;2023-03-13T07:08:22;3.03;;;1.00;;
29402;SDS011;16382;59.942;30.472;2023-03-13T07:10:52;8.48;;;1.33;;
29402;SDS011;16382;59.942;30.472;2023-03-13T07:13:23;2.30;;;1.00;;
29402;SDS011;16382;59.942;30.472;2023-03-13T07:15:50;1.35;;;0.90;;
29402;SDS011;16382;59.942;30.472;2023-03-13T07:18:18;1.25;;;0.88;;
29402;SDS011;16382;59.942;30.472;2023-03-13T07:20:50;2.60;;;0.60;;
29402;SDS011;16382;59.942;30.472;2023-03-13T07:25:52;1.23;;;0.80;;
29402;SDS011;16382;59.942;30.472;2023-03-13T07:28:21;5.03;;;1.42;;
29402;SDS011;16382;59.942;30.472;2023-03-13T07:30:49;4.03;;;1.05;;
29402;SDS011;16382;59.942;30.472;2023-03-13T07:33:17;0.60;;;0.50;;
29402;SDS011;16382;59.942;30.472;2023-03-13T07:35:48;1.17;;;0.63;;
29402;SDS011;16382;59.942;30.472;2023-03-13T07:38:17;3.35;;;1.02;;
29402;SDS011;16382;59.942;30.472;2023-03-13T07:40:46;9.00;;;0.60;;
29402;SDS011;16382;59.942;30.472;2023-03-13T07:43:17;4.85;;;0.65;;
29402;SDS011;16382;59.942;30.472;2023-03-13T07:45:51;14.85;;;0.98;;
29402;SDS011;16382;59.942;30.472;2023-03-13T07:48:21;0.93;;;0.80;;
29402;SDS011;16382;59.942;30.472;2023-03-13T07:50:50;1.15;;;0.55;;
29402;SDS011;16382;59.942;30.472;2023-03-13T07:53:20;2.53;;;1.33;;
29402;SDS011;16382;59.942;30.472;2023-03-13T07:55:51;1.55;;;0.70;;
29402;SDS011;16382;59.942;30.472;2023-03-13T07:58:22;4.72;;;0.93;;
29402;SDS011;16382;59.942;30.472;2023-03-13T08:00:51;1.67;;;1.15;;
29402;SDS011;16382;59.942;30.472;2023-03-13T08:03:19;4.55;;;0.60;;
29402;SDS011;16382;59.942;30.472;2023-03-13T08:05:47;4.57;;;0.90;;
29402;SDS011;16382;59.942;30.472;2023-03-13T08:08:23;1.33;;;1.15;;
29402;SDS011;16382;59.942;30.472;2023-03-13T08:10:51;2.90;;;1.02;;
29402;SDS011;16382;59.942;30.472;2023-03-13T08:13:18;1.30;;;0.85;;
29402;SDS011;16382;59.942;30.472;2023-03-13T08:15:47;1.42;;;1.08;;
29402;SDS011;16382;59.942;30.472;2023-03-13T08:18:15;1.75;;;0.70;;
29402;SDS011;16382;59.942;30.472;2023-03-13T08:20:42;2.75;;;0.77;;
29402;SDS011;16382;59.942;30.472;2023-03-13T08:23:10;2.25;;;0.70;;
29402;SDS011;16382;59.942;30.472;2023-03-13T08:25:37;1.60;;;0.85;;
29402;SDS011;16382;59.942;30.472;2023-03-13T08:28:05;2.53;;;1.00;;
29402;SDS011;16382;59.942;30.472;2023-03-13T08:30:33;3.85;;;0.70;;
29402;SDS011;16382;59.942;30.472;2023-03-13T08:33:02;2.65;;;0.70;;
29402;SDS011;16382;59.942;30.472;2023-03-13T08:35:29;1.63;;;0.75;;
29402;SDS011;16382;59.942;30.472;2023-03-13T08:37:56;1.63;;;0.60;;
29402;SDS011;16382;59.942;30.472;2023-03-13T08:40:24;1.15;;;0.60;;
29402;SDS011;16382;59.942;30.472;2023-03-13T08:42:51;2.60;;;0.55;;
29402;SDS011;16382;59.942;30.472;2023-03-13T08:45:20;2.00;;;0.90;;
29402;SDS011;16382;59.942;30.472;2023-03-13T08:47:50;2.33;;;0.70;;
29402;SDS011;16382;59.942;30.472;2023-03-13T08:50:22;2.22;;;0.60;;
29402;SDS011;16382;59.942;30.472;2023-03-13T08:52:50;4.60;;;0.77;;
29402;SDS011;16382;59.942;30.472;2023-03-13T08:55:18;0.70;;;0.32;;
29402;SDS011;16382;59.942;30.472;2023-03-13T08:57:45;2.08;;;0.95;;
29402;SDS011;16382;59.942;30.472;2023-03-13T09:00:13;0.80;;;0.40;;
29402;SDS011;16382;59.942;30.472;2023-03-13T09:02:43;0.98;;;0.60;;
29402;SDS011;16382;59.942;30.472;2023-03-13T09:05:10;2.83;;;0.95;;
29402;SDS011;16382;59.942;30.472;2023-03-13T09:07:39;1.58;;;0.60;;
29402;SDS011;16382;59.942;30.472;2023-03-13T09:10:07;1.95;;;0.50;;
29402;SDS011;16382;59.942;30.472;2023-03-13T09:12:36;3.28;;;0.50;;
29402;SDS011;16382;59.942;30.472;2023-03-13T09:15:04;4.10;;;0.50;;
29402;SDS011;16382;59.942;30.472;2023-03-13T09:17:33;5.95;;;1.10;;
29402;SDS011;16382;59.942;30.472;2023-03-13T09:20:01;1.45;;;0.85;;
29402;SDS011;16382;59.942;30.472;2023-03-13T09:22:29;1.60;;;0.73;;
29402;SDS011;16382;59.942;30.472;2023-03-13T09:24:58;3.13;;;0.80;;
29402;SDS011;16382;59.942;30.472;2023-03-13T09:27:26;3.83;;;0.65;;
29402;SDS011;16382;59.942;30.472;2023-03-13T09:29:53;2.63;;;0.50;;
29402;SDS011;16382;59.942;30.472;2023-03-13T09:32:21;1.98;;;0.60;;
29402;SDS011;16382;59.942;30.472;2023-03-13T09:34:48;1.58;;;0.60;;
29402;SDS011;16382;59.942;30.472;2023-03-13T09:37:16;0.93;;;0.50;;
29402;SDS011;16382;59.942;30.472;2023-03-13T09:39:43;4.75;;;0.57;;
29402;SDS011;16382;59.942;30.472;2023-03-13T09:42:14;1.77;;;0.70;;
29402;SDS011;16382;59.942;30.472;2023-03-13T09:44:45;3.65;;;1.48;;
29402;SDS011;16382;59.942;30.472;2023-03-13T09:47:18;2.58;;;0.60;;
29402;SDS011;16382;59.942;30.472;2023-03-13T09:49:51;6.43;;;1.20;;
29402;SDS011;16382;59.942;30.472;2023-03-13T09:52:24;1.98;;;0.60;;
29402;SDS011;16382;59.942;30.472;2023-03-13T09:54:53;1.23;;;0.55;;
29402;SDS011;16382;59.942;30.472;2023-03-13T09:57:32;4.32;;;0.75;;
29402;SDS011;16382;59.942;30.472;2023-03-13T10:00:04;5.53;;;1.02;;
29402;SDS011;16382;59.942;30.472;2023-03-13T10:02:39;2.67;;;0.63;;
29402;SDS011;16382;59.942;30.472;2023-03-13T10:05:13;2.42;;;0.77;;
29402;SDS011;16382;59.942;30.472;2023-03-13T10:07:44;4.07;;;0.80;;
29402;SDS011;16382;59.942;30.472;2023-03-13T10:10:13;2.72;;;1.05;;
29402;SDS011;16382;59.942;30.472;2023-03-13T10:12:45;1.65;;;0.68;;
29402;SDS011;16382;59.942;30.472;2023-03-13T10:15:21;3.25;;;0.88;;
29402;SDS011;16382;59.942;30.472;2023-03-13T10:18:10;1.85;;;0.88;;
29402;SDS011;16382;59.942;30.472;2023-03-13T10:20:45;1.25;;;0.60;;
29402;SDS011;16382;59.942;30.472;2023-03-13T10:23:18;5.25;;;0.80;;
29402;SDS011;16382;59.942;30.472;2023-03-13T10:25:53;1.67;;;0.63;;
29402;SDS011;16382;59.942;30.472;2023-03-13T10:28:21;3.28;;;0.82;;
29402;SDS011;16382;59.942;30.472;2023-03-13T10:30:52;1.23;;;0.80;;
29402;SDS011;16382;59.942;30.472;2023-03-13T10:33:28;2.15;;;0.75;;
29402;SDS011;16382;59.942;30.472;2023-03-13T10:35:59;2.50;;;0.65;;
29402;SDS011;16382;59.942;30.472;2023-03-13T10:38:31;2.45;;;0.75;;
29402;SDS011;16382;59.942;30.472;2023-03-13T10:41:17;2.63;;;0.80;;
29402;SDS011;16382;59.942;30.472;2023-03-13T10:43:52;2.13;;;0.80;;
29402;SDS011;16382;59.942;30.472;2023-03-13T10:46:25;2.88;;;0.82;;
29402;SDS011;16382;59.942;30.472;2023-03-13T10:48:56;2.88;;;0.85;;
29402;SDS011;16382;59.942;30.472;2023-03-13T10:51:29;1.85;;;1.00;;
29402;SDS011;16382;59.942;30.472;2023-03-13T10:54:12;2.50;;;0.70;;
29402;SDS011;16382;59.942;30.472;2023-03-13T10:56:42;1.80;;;0.70;;
29402;SDS011;16382;59.942;30.472;2023-03-13T10:59:21;1.50;;;0.70;;
29402;SDS011;16382;59.942;30.472;2023-03-13T11:01:51;1.80;;;1.00;;
29402;SDS011;16382;59.942;30.472;2023-03-13T11:04:28;4.03;;;1.10;;
29402;SDS011;16382;59.942;30.472;2023-03-13T11:07:00;2.70;;;0.80;;
29402;SDS011;16382;59.942;30.472;2023-03-13T11:09:30;1.45;;;0.80;;
29402;SDS011;16382;59.942;30.472;2023-03-13T11:12:01;0.73;;;0.60;;
29402;SDS011;16382;59.942;30.472;2023-03-13T11:14:34;1.40;;;0.60;;
29402;SDS011;16382;59.942;30.472;2023-03-13T11:17:02;3.78;;;0.73;;
29402;SDS011;16382;59.942;30.472;2023-03-13T11:19:42;2.28;;;0.90;;
29402;SDS011;16382;59.942;30.472;2023-03-13T11:22:32;2.25;;;1.35;;
29402;SDS011;16382;59.942;30.472;2023-03-13T11:25:17;3.55;;;0.60;;
29402;SDS011;16382;59.942;30.472;2023-03-13T11:27:57;2.65;;;0.60;;
29402;SDS011;16382;59.942;30.472;2023-03-13T11:30:46;1.90;;;0.73;;
29402;SDS011;16382;59.942;30.472;2023-03-13T11:33:30;2.13;;;0.73;;
29402;SDS011;16382;59.942;30.472;2023-03-13T11:36:07;2.47;;;0.60;;
29402;SDS011;16382;59.942;30.472;2023-03-13T11:38:47;6.68;;;1.05;;
29402;SDS011;16382;59.942;30.472;2023-03-13T11:41:21;3.03;;;1.55;;
29402;SDS011;16382;59.942;30.472;2023-03-13T11:44:11;0.90;;;0.77;;
29402;SDS011;16382;59.942;30.472;2023-03-13T11:47:03;2.97;;;0.65;;
29402;SDS011;16382;59.942;30.472;2023-03-13T11:49:47;2.20;;;0.65;;
29402;SDS011;16382;59.942;30.472;2023-03-13T11:52:32;3.83;;;0.85;;
29402;SDS011;16382;59.942;30.472;2023-03-13T11:55:13;1.85;;;0.63;;
29402;SDS011;16382;59.942;30.472;2023-03-13T11:57:52;1.95;;;0.63;;
29402;SDS011;16382;59.942;30.472;2023-03-13T12:00:32;2.83;;;0.77;;
29402;SDS011;16382;59.942;30.472;2023-03-13T12:03:05;3.55;;;0.90;;
29402;SDS011;16382;59.942;30.472;2023-03-13T12:05:43;0.77;;;0.70;;
29402;SDS011;16382;59.942;30.472;2023-03-13T12:08:19;0.50;;;0.40;;
29402;SDS011;16382;59.942;30.472;2023-03-13T12:10:57;1.10;;;0.68;;
29402;SDS011;16382;59.942;30.472;2023-03-13T12:13:36;1.70;;;0.60;;
29402;SDS011;16382;59.942;30.472;2023-03-13T12:16:08;1.03;;;0.60;;
29402;SDS011;16382;59.942;30.472;2023-03-13T12:18:42;1.02;;;0.50;;
29402;SDS011;16382;59.942;30.472;2023-03-13T12:21:14;1.10;;;0.60;;
29402;SDS011;16382;59.942;30.472;2023-03-13T12:23:49;0.80;;;0.70;;
29402;SDS011;16382;59.942;30.472;2023-03-13T12:26:26;1.15;;;0.60;;
29402;SDS011;16382;59.942;30.472;2023-03-13T12:29:05;2.83;;;0.70;;
29402;SDS011;16382;59.942;30.472;2023-03-13T12:31:39;1.42;;;0.80;;
29402;SDS011;16382;59.942;30.472;2023-03-13T12:34:15;1.60;;;0.70;;
29402;SDS011;16382;59.942;30.472;2023-03-13T12:36:50;3.03;;;1.05;;
29402;SDS011;16382;59.942;30.472;2023-03-13T12:39:27;2.05;;;0.75;;
29402;SDS011;16382;59.942;30.472;2023-03-13T12:42:08;2.15;;;0.75;;
29402;SDS011;16382;59.942;30.472;2023-03-13T12:44:44;2.22;;;0.80;;
29402;SDS011;16382;59.942;30.472;2023-03-13T12:47:15;2.13;;;0.85;;
29402;SDS011;16382;59.942;30.472;2023-03-13T12:49:57;2.22;;;0.73;;
29402;SDS011;16382;59.942;30.472;2023-03-13T12:52:44;1.40;;;0.68;;
29402;SDS011;16382;59.942;30.472;2023-03-13T12:55:36;1.63;;;0.52;;
29402;SDS011;16382;59.942;30.472;2023-03-13T12:58:37;2.35;;;1.23;;
29402;SDS011;16382;59.942;30.472;2023-03-13T13:01:13;3.15;;;1.02;;
29402;SDS011;16382;59.942;30.472;2023-03-13T13:03:57;3.78;;;0.90;;
29402;SDS011;16382;59.942;30.472;2023-03-13T13:06:29;1.40;;;0.85;;
29402;SDS011;16382;59.942;30.472;2023-03-13T13:09:24;2.35;;;1.20;;
29402;SDS011;16382;59.942;30.472;2023-03-13T13:11:54;4.18;;;1.13;;
29402;SDS011;16382;59.942;30.472;2023-03-13T13:17:33;3.03;;;0.75;;
29402;SDS011;16382;59.942;30.472;2023-03-13T13:20:41;2.42;;;0.90;;
29402;SDS011;16382;59.942;30.472;2023-03-13T13:23:24;3.33;;;0.80;;
29402;SDS011;16382;59.942;30.472;2023-03-13T13:32:32;3.70;;;1.25;;
29402;SDS011;16382;59.942;30.472;2023-03-13T13:41:02;3.43;;;1.00;;
29402;SDS011;16382;59.942;30.472;2023-03-13T13:44:13;4.03;;;0.90;;
29402;SDS011;16382;59.942;30.472;2023-03-13T13:47:20;2.90;;;0.88;;
29402;SDS011;16382;59.942;30.472;2023-03-13T13:49:52;1.30;;;1.10;;
29402;SDS011;16382;59.942;30.472;2023-03-13T13:58:10;1.70;;;1.33;;
29402;SDS011;16382;59.942;30.472;2023-03-13T14:00:42;1.73;;;1.02;;
29402;SDS011;16382;59.942;30.472;2023-03-13T14:03:17;4.88;;;1.80;;
29402;SDS011;16382;59.942;30.472;2023-03-13T14:05:47;2.97;;;1.23;;
29402;SDS011;16382;59.942;30.472;2023-03-13T14:08:19;4.03;;;1.30;;
29402;SDS011;16382;59.942;30.472;2023-03-13T14:10:54;3.45;;;2.03;;
29402;SDS011;16382;59.942;30.472;2023-03-13T14:13:40;4.80;;;1.85;;
29402;SDS011;16382;59.942;30.472;2023-03-13T14:16:27;3.65;;;1.92;;
29402;SDS011;16382;59.942;30.472;2023-03-13T14:18:55;4.40;;;1.88;;
29402;SDS011;16382;59.942;30.472;2023-03-13T14:21:23;3.33;;;1.77;;
29402;SDS011;16382;59.942;30.472;2023-03-13T14:23:56;2.53;;;1.48;;
29402;SDS011;16382;59.942;30.472;2023-03-13T14:26:26;4.45;;;1.58;;
29402;SDS011;16382;59.942;30.472;2023-03-13T14:29:00;7.72;;;1.80;;
29402;SDS011;16382;59.942;30.472;2023-03-13T14:31:30;10.18;;;3.28;;
29402;SDS011;16382;59.942;30.472;2023-03-13T14:34:02;4.82;;;2.38;;
29402;SDS011;16382;59.942;30.472;2023-03-13T14:36:44;4.25;;;2.42;;
29402;SDS011;16382;59.942;30.472;2023-03-13T14:39:15;7.82;;;3.38;;
29402;SDS011;16382;59.942;30.472;2023-03-13T14:41:46;7.78;;;3.58;;
29402;SDS011;16382;59.942;30.472;2023-03-13T14:44:19;5.35;;;3.13;;
29402;SDS011;16382;59.942;30.472;2023-03-13T14:46:52;8.43;;;2.90;;
29402;SDS011;16382;59.942;30.472;2023-03-13T14:49:23;4.07;;;2.88;;
29402;SDS011;16382;59.942;30.472;2023-03-13T14:51:57;5.68;;;2.78;;
29402;SDS011;16382;59.942;30.472;2023-03-13T14:54:28;6.03;;;3.60;;
29402;SDS011;16382;59.942;30.472;2023-03-13T14:57:01;13.95;;;3.83;;
29402;SDS011;16382;59.942;30.472;2023-03-13T14:59:45;9.77;;;3.03;;
29402;SDS011;16382;59.942;30.472;2023-03-13T15:02:14;5.25;;;2.50;;
29402;SDS011;16382;59.942;30.472;2023-03-13T15:04:51;5.10;;;2.00;;
29402;SDS011;16382;59.942;30.472;2023-03-13T15:07:27;2.78;;;1.73;;
29402;SDS011;16382;59.942;30.472;2023-03-13T15:10:16;2.90;;;1.83;;
29402;SDS011;16382;59.942;30.472;2023-03-13T15:12:46;2.70;;;1.58;;
29402;SDS011;16382;59.942;30.472;2023-03-13T15:15:28;3.47;;;1.50;;
29402;SDS011;16382;59.942;30.472;2023-03-13T15:17:55;5.32;;;1.80;;
29402;SDS011;16382;59.942;30.472;2023-03-13T15:20:23;1.95;;;1.40;;
29402;SDS011;16382;59.942;30.472;2023-03-13T15:22:51;3.38;;;1.23;;
29402;SDS011;16382;59.942;30.472;2023-03-13T15:25:20;2.97;;;1.42;;
29402;SDS011;16382;59.942;30.472;2023-03-13T15:27:48;1.30;;;1.08;;
29402;SDS011;16382;59.942;30.472;2023-03-13T15:30:16;2.40;;;0.98;;
29402;SDS011;16382;59.942;30.472;2023-03-13T15:32:49;3.10;;;1.17;;
29402;SDS011;16382;59.942;30.472;2023-03-13T15:35:24;3.17;;;1.15;;
29402;SDS011;16382;59.942;30.472;2023-03-13T15:37:54;3.05;;;1.52;;